Time;durP1;ratioP1;P1;durP2;ratioP2;P2;SDS_P1;SDS_P2;PMS_P1;PMS_P2;Temp;Humidity;BMP_temperature;BMP_pressure;BME280_temperature;BME280_humidity;BME280_pressure;Samples;Min_cycle;Max_cycle;Signal;HPM_P1;HPM_P2
2023/05/24 00:01:24;;;;;;;;;;;;;;;19.47;68.14;99316.84;4430699;32;34094;-83
2023/05/24 00:03:57;;;;;;;;;;;;;;;19.18;69.15;99312.28;4436432;32;34075;-83
2023/05/24 00:06:26;;;;;;;;;;;;;;;19.38;68.64;99310.34;4433752;32;33490;-83
2023/05/24 00:08:55;;;;;;;;;;;;;;;19.59;67.61;99306.47;4430910;32;35122;-84
2023/05/24 00:11:23;;;;;;;;;;;;;;;19.56;67.75;99306.66;4430698;32;34355;-84
2023/05/24 00:13:52;;;;;;;;;;;;;;;19.68;67.19;99299.91;4419236;32;34094;-83
2023/05/24 00:16:20;;;;;;;;;;;;;;;19.77;66.67;99306.44;4435649;32;34436;-83
2023/05/24 00:18:49;;;;;;;;;;;;;;;19.65;67.17;99301.84;4428579;32;33926;-83
2023/05/24 00:21:19;;;;;;;;;;;;;;;19.72;66.84;99303.22;4431685;32;33891;-84
2023/05/24 00:23:50;;;;;;;;;;;;;;;19.79;66.46;99304.56;4429305;32;32370;-84
2023/05/24 00:26:19;;;;;;;;;;;;;;;19.46;67.64;99304.66;4434700;32;34185;-84
2023/05/24 00:28:52;;;;;;;;;;;;;;;19.10;68.91;99293.44;4429718;32;33944;-82
2023/05/24 00:31:20;;;;;;;;;;;;;;;19.45;67.96;99290.66;4431904;32;34227;-84
2023/05/24 00:33:48;;;;;;;;;;;;;;;19.56;67.39;99290.03;4430129;32;33042;-83
2023/05/24 00:36:20;;;;;;;;;;;;;;;19.43;68.06;99292.50;4427663;32;35050;-84
2023/05/24 00:38:48;;;;;;;;;;;;;;;19.42;68.16;99295.22;4434617;32;34577;-85
2023/05/24 00:41:17;;;;;;;;;;;;;;;19.52;67.56;99284.09;4430109;32;34348;-84
2023/05/24 00:43:45;;;;;;;;;;;;;;;19.52;67.17;99281.47;4432022;32;32683;-83
2023/05/24 00:46:17;;;;;;;;;;;;;;;19.65;66.63;99284.25;4430347;32;33386;-83
2023/05/24 00:48:46;;;;;;;;;;;;;;;19.56;67.02;99280.34;4435977;32;34876;-85
2023/05/24 00:51:14;;;;;;;;;;;;;;;19.57;66.95;99283.81;4431746;32;34327;-84
2023/05/24 00:53:45;;;;;;;;;;;;;;;19.68;66.69;99291.16;4430649;32;32970;-83
2023/05/24 00:56:14;;;;;;;;;;;;;;;19.72;66.41;99285.63;4430747;32;33866;-83
2023/05/24 00:58:42;;;;;;;;;;;;;;;19.73;66.53;99295.22;4431874;32;34954;-84
2023/05/24 01:01:11;;;;;;;;;;;;;;;19.52;67.37;99294.63;4435941;32;34458;-84
2023/05/24 01:03:40;;;;;;;;;;;;;;;19.36;68.39;99296.41;4430768;32;33440;-84
2023/05/24 01:06:11;;;;;;;;;;;;;;;19.46;67.88;99296.75;4430315;32;34238;-84
2023/05/24 01:08:42;;;;;;;;;;;;;;;19.43;67.71;99299.56;4430786;32;34094;-83
2023/05/24 01:11:13;;;;;;;;;;;;;;;19.36;68.15;99294.63;4435934;32;34382;-82
2023/05/24 01:13:46;;;;;;;;;;;;;;;19.40;68.51;99296.16;4435995;32;32879;-83
2023/05/24 01:16:17;;;;;;;;;;;;;;;19.43;68.74;99292.50;4429969;32;33636;-86
2023/05/24 01:18:47;;;;;;;;;;;;;;;19.59;68.16;99290.69;4422546;32;33705;-82
2023/05/24 01:21:16;;;;;;;;;;;;;;;19.68;67.36;99291.16;4428623;32;34062;-82
2023/05/24 01:23:45;;;;;;;;;;;;;;;19.66;67.31;99291.19;4436622;32;33842;-84
2023/05/24 01:26:25;;;;;;;;;;;;;;;19.51;68.32;99289.44;4426862;32;33494;-83
2023/05/24 01:28:54;;;;;;;;;;;;;;;19.51;68.26;99285.03;4429045;32;34273;-85
2023/05/24 01:31:23;;;;;;;;;;;;;;;19.35;69.20;99287.69;4430397;32;34262;-82
2023/05/24 01:33:54;;;;;;;;;;;;;;;19.17;69.75;99279.03;4431935;32;33654;-83
2023/05/24 01:36:23;;;;;;;;;;;;;;;19.24;69.91;99289.22;4428888;32;33824;-85
2023/05/24 01:38:51;;;;;;;;;;;;;;;19.29;69.76;99281.91;4430391;32;34940;-83
2023/05/24 01:41:25;;;;;;;;;;;;;;;19.47;69.01;99280.03;4429653;32;33883;-84
2023/05/24 01:43:59;;;;;;;;;;;;;;;19.17;70.26;99278.19;4427465;32;33055;-85
2023/05/24 01:46:30;;;;;;;;;;;;;;;19.43;69.22;99271.47;4434456;32;33750;-83
2023/05/24 01:49:01;;;;;;;;;;;;;;;19.14;70.57;99266.06;4431869;32;34263;-83
2023/05/24 01:51:30;;;;;;;;;;;;;;;19.34;69.83;99269.34;4430192;32;33840;-84
2023/05/24 01:53:59;;;;;;;;;;;;;;;19.29;69.96;99274.03;4429496;32;33705;-82
2023/05/24 01:56:28;;;;;;;;;;;;;;;19.09;70.57;99265.47;4436723;32;34302;-84
2023/05/24 01:58:57;;;;;;;;;;;;;;;18.97;71.36;99272.22;4432170;32;34236;-83
2023/05/24 02:01:26;;;;;;;;;;;;;;;19.15;70.79;99273.00;4430166;32;36046;-83
2023/05/24 02:03:55;;;;;;;;;;;;;;;19.08;71.46;99268.16;4431240;32;33377;-84
2023/05/24 02:06:23;;;;;;;;;;;;;;;19.20;70.50;99270.09;4430174;32;33682;-84
2023/05/24 02:08:52;;;;;;;;;;;;;;;18.97;71.26;99268.75;4435801;32;34866;-84
2023/05/24 02:11:21;;;;;;;;;;;;;;;19.25;70.32;99275.13;4429955;32;33885;-85
2023/05/24 02:13:50;;;;;;;;;;;;;;;19.25;69.95;99275.13;4430170;32;33121;-84
2023/05/24 02:16:22;;;;;;;;;;;;;;;19.46;69.21;99275.72;4429868;32;33535;-85
2023/05/24 02:18:51;;;;;;;;;;;;;;;19.26;69.96;99282.94;4435388;32;34451;-83
2023/05/24 02:21:19;;;;;;;;;;;;;;;19.11;70.84;99276.75;4428719;32;32583;-83
2023/05/24 02:23:48;;;;;;;;;;;;;;;19.28;69.99;99277.56;4429956;32;33285;-84
2023/05/24 02:26:18;;;;;;;;;;;;;;;19.25;70.10;99277.75;4428726;32;32963;-83
2023/05/24 02:28:47;;;;;;;;;;;;;;;19.03;71.10;99280.72;4430422;32;35137;-83
2023/05/24 02:31:15;;;;;;;;;;;;;;;19.13;70.83;99276.63;4435349;32;35149;-84
2023/05/24 02:33:45;;;;;;;;;;;;;;;19.04;71.03;99278.00;4430023;32;33829;-83
2023/05/24 02:36:14;;;;;;;;;;;;;;;19.10;70.38;99267.13;4429744;32;34745;-83
2023/05/24 02:38:42;;;;;;;;;;;;;;;18.88;71.66;99261.37;4429615;32;34187;-84
2023/05/24 02:41:16;;;;;;;;;;;;;;;19.22;69.99;99268.25;4435244;32;34055;-83
2023/05/24 02:43:45;;;;;;;;;;;;;;;19.16;70.13;99269.44;4429975;32;32942;-84
2023/05/24 02:46:14;;;;;;;;;;;;;;;19.12;70.19;99262.66;4429465;32;34725;-83
2023/05/24 02:48:43;;;;;;;;;;;;;;;18.96;70.50;99256.53;4430935;32;33836;-83
2023/05/24 02:51:13;;;;;;;;;;;;;;;18.72;71.72;99259.50;4433636;32;34295;-84
2023/05/24 02:53:42;;;;;;;;;;;;;;;18.83;71.45;99256.34;4440450;32;33954;-85
2023/05/24 02:56:12;;;;;;;;;;;;;;;18.92;70.86;99252.41;4428507;32;33781;-83
2023/05/24 02:58:41;;;;;;;;;;;;;;;18.96;70.63;99253.91;4427891;32;34135;-84
2023/05/24 03:01:11;;;;;;;;;;;;;;;19.02;70.02;99253.59;4430703;32;34501;-83
2023/05/24 03:03:40;;;;;;;;;;;;;;;19.01;70.68;99258.91;4432428;32;33368;-84
2023/05/24 03:06:08;;;;;;;;;;;;;;;19.05;70.05;99266.56;4428666;32;34122;-85
2023/05/24 03:08:38;;;;;;;;;;;;;;;18.88;71.08;99264.00;4427712;32;34279;-83
2023/05/24 03:11:07;;;;;;;;;;;;;;;18.86;71.07;99263.22;4429294;32;33916;-84
2023/05/24 03:13:35;;;;;;;;;;;;;;;18.67;71.79;99269.44;4406698;32;887582;-83
2023/05/24 03:16:05;;;;;;;;;;;;;;;18.77;71.18;99269.81;4430500;32;34968;-85
2023/05/24 03:18:33;;;;;;;;;;;;;;;18.46;73.08;99266.19;4429464;32;34916;-83
2023/05/24 03:21:01;;;;;;;;;;;;;;;18.67;72.06;99269.44;4429772;32;33797;-83
2023/05/24 03:23:30;;;;;;;;;;;;;;;18.53;72.34;99264.94;4428996;32;32762;-84
2023/05/24 03:26:00;;;;;;;;;;;;;;;18.68;71.50;99271.13;4437530;32;33942;-84
2023/05/24 03:28:29;;;;;;;;;;;;;;;18.85;70.42;99272.06;4428781;32;34138;-84
2023/05/24 03:30:58;;;;;;;;;;;;;;;18.95;70.13;99270.63;4437929;32;33421;-83
2023/05/24 03:33:26;;;;;;;;;;;;;;;18.86;71.01;99266.69;4428970;32;32974;-84
2023/05/24 03:35:55;;;;;;;;;;;;;;;18.87;71.36;99271.03;4435126;32;34886;-84
2023/05/24 03:38:24;;;;;;;;;;;;;;;19.01;70.68;99269.44;4424397;32;34330;-83
2023/05/24 03:40:52;;;;;;;;;;;;;;;18.86;71.70;99282.47;4430076;32;34006;-84
2023/05/24 03:43:22;;;;;;;;;;;;;;;19.17;70.26;99281.66;4429502;32;33489;-83
2023/05/24 03:45:52;;;;;;;;;;;;;;;19.04;71.20;99288.53;4431364;32;33441;-83
2023/05/24 03:48:21;;;;;;;;;;;;;;;19.23;70.32;99288.34;4435474;32;34942;-85
2023/05/24 03:50:50;;;;;;;;;;;;;;;19.03;71.09;99299.97;4430846;32;33936;-83
2023/05/24 03:53:21;;;;;;;;;;;;;;;19.26;70.46;99296.09;4425064;32;31539;-84
2023/05/24 03:55:50;;;;;;;;;;;;;;;19.12;71.21;99302.09;4429009;32;33604;-84
2023/05/24 03:58:19;;;;;;;;;;;;;;;19.52;69.49;99307.78;4436747;32;34759;-83
2023/05/24 04:00:49;;;;;;;;;;;;;;;19.49;69.61;99305.31;4430436;32;33862;-83
2023/05/24 04:03:18;;;;;;;;;;;;;;;19.46;69.98;99302.84;4432110;32;33942;-83
2023/05/24 04:05:47;;;;;;;;;;;;;;;19.53;69.70;99304.22;4431029;32;33940;-84
2023/05/24 04:08:16;;;;;;;;;;;;;;;19.16;71.00;99295.75;4436188;32;34166;-83
2023/05/24 04:10:44;;;;;;;;;;;;;;;19.43;70.07;99304.81;4431037;32;34170;-83
2023/05/24 04:13:13;;;;;;;;;;;;;;;19.40;70.75;99301.44;4431008;32;34211;-84
2023/05/24 04:15:42;;;;;;;;;;;;;;;19.42;70.82;99297.84;4431094;32;34305;-85
2023/05/24 04:18:13;;;;;;;;;;;;;;;19.34;70.87;99307.00;4430382;32;34710;-86
2023/05/24 04:20:41;;;;;;;;;;;;;;;19.30;71.45;99304.62;4436854;32;34179;-86
2023/05/24 04:23:10;;;;;;;;;;;;;;;19.16;72.16;99311.53;4430635;32;33683;-86
2023/05/24 04:25:39;;;;;;;;;;;;;;;18.89;73.41;99308.56;4430996;32;33840;-85
2023/05/24 04:28:08;;;;;;;;;;;;;;;18.65;75.00;99312.47;4430915;32;33928;-87
2023/05/24 04:30:37;;;;;;;;;;;;;;;18.94;73.68;99319.72;4436659;32;33973;-87
2023/05/24 04:33:05;;;;;;;;;;;;;;;18.55;75.83;99317.38;4430981;32;34039;-84
2023/05/24 04:35:35;;;;;;;;;;;;;;;18.80;74.81;99313.47;4430908;32;34122;-83
2023/05/24 04:38:04;;;;;;;;;;;;;;;18.62;75.63;99324.00;4428698;32;33062;-86
2023/05/24 04:40:33;;;;;;;;;;;;;;;18.46;76.42;99320.47;4432293;32;33733;-86
2023/05/24 04:43:01;;;;;;;;;;;;;;;18.37;77.19;99319.16;4436385;32;33623;-87
2023/05/24 04:45:31;;;;;;;;;;;;;;;18.59;75.88;99318.91;4428622;32;34283;-87
2023/05/24 04:48:00;;;;;;;;;;;;;;;18.53;76.81;99313.97;4429333;32;34356;-86
2023/05/24 04:50:28;;;;;;;;;;;;;;;18.67;75.94;99310.62;4428225;32;33895;-84
2023/05/24 04:52:58;;;;;;;;;;;;;;;18.96;75.06;99317.00;4439340;32;33709;-84
2023/05/24 04:55:26;;;;;;;;;;;;;;;18.82;75.38;99312.47;4423955;32;33582;-84
2023/05/24 04:57:55;;;;;;;;;;;;;;;18.79;75.91;99314.41;4433633;32;34944;-85
2023/05/24 05:00:24;;;;;;;;;;;;;;;19.00;74.71;99318.53;4431477;32;33659;-84
2023/05/24 05:02:52;;;;;;;;;;;;;;;18.95;75.37;99316.16;4437492;32;33520;-84
2023/05/24 05:05:21;;;;;;;;;;;;;;;19.01;75.41;99322.00;4428859;32;33964;-83
2023/05/24 05:07:50;;;;;;;;;;;;;;;19.14;74.57;99321.25;4431041;32;33969;-85
2023/05/24 05:10:19;;;;;;;;;;;;;;;18.95;74.85;99323.19;4437659;32;34865;-84
2023/05/24 05:12:51;;;;;;;;;;;;;;;18.90;75.06;99331.31;4434706;32;33369;-84
2023/05/24 05:15:20;;;;;;;;;;;;;;;18.87;74.91;99333.25;4446305;32;34718;-85
2023/05/24 05:17:54;;;;;;;;;;;;;;;18.99;75.17;99340.47;4439173;32;33841;-84
2023/05/24 05:20:23;;;;;;;;;;;;;;;18.90;75.66;99331.31;4431551;32;34262;-84
2023/05/24 05:22:52;;;;;;;;;;;;;;;19.30;74.08;99342.31;4431015;32;32964;-84
2023/05/24 05:25:22;;;;;;;;;;;;;;;19.77;71.31;99343.28;4436132;32;34196;-85
2023/05/24 05:27:50;;;;;;;;;;;;;;;19.85;71.46;99343.69;4430661;32;36521;-84
2023/05/24 05:30:19;;;;;;;;;;;;;;;20.06;69.92;99346.88;4430754;32;33232;-84
2023/05/24 05:32:47;;;;;;;;;;;;;;;20.02;69.82;99354.09;4430487;32;34164;-85
2023/05/24 05:35:16;;;;;;;;;;;;;;;20.04;69.85;99348.75;4427095;32;34163;-84
2023/05/24 05:37:45;;;;;;;;;;;;;;;20.27;69.20;99350.03;4437602;32;34223;-85
2023/05/24 05:40:13;;;;;;;;;;;;;;;20.87;66.64;99357.03;4435966;32;34183;-84
2023/05/24 05:42:43;;;;;;;;;;;;;;;21.09;65.58;99346.00;4437429;32;33958;-84
2023/05/24 05:45:11;;;;;;;;;;;;;;;21.04;65.82;99346.28;4444987;32;33768;-84
2023/05/24 05:47:40;;;;;;;;;;;;;;;21.43;64.07;99355.34;4441878;32;33674;-84
2023/05/24 05:50:09;;;;;;;;;;;;;;;21.48;63.81;99355.03;4437814;32;34838;-84
2023/05/24 05:52:37;;;;;;;;;;;;;;;21.14;63.83;99362.38;4435662;32;32917;-84
2023/05/24 05:55:07;;;;;;;;;;;;;;;21.01;63.91;99361.47;4428797;32;33917;-83
2023/05/24 05:57:35;;;;;;;;;;;;;;;20.85;64.94;99365.06;4434653;32;34515;-83
2023/05/24 06:00:06;;;;;;;;;;;;;;;20.71;66.02;99364.16;4430290;32;33827;-83
2023/05/24 06:02:39;;;;;;;;;;;;;;;20.29;67.41;99366.59;4430453;32;33058;-84
2023/05/24 06:05:08;;;;;;;;;;;;;;;20.08;68.26;99358.16;4428981;32;33737;-85
2023/05/24 06:07:37;;;;;;;;;;;;;;;20.00;68.16;99370.91;4430042;32;34517;-84
2023/05/24 06:10:06;;;;;;;;;;;;;;;19.95;68.68;99368.53;4439284;32;34351;-83
2023/05/24 06:12:35;;;;;;;;;;;;;;;19.87;68.57;99362.88;4435533;32;33453;-85
2023/05/24 06:15:05;;;;;;;;;;;;;;;19.71;69.35;99364.66;4426795;32;33006;-84
2023/05/24 06:17:35;;;;;;;;;;;;;;;19.82;69.53;99373.66;4428571;32;34616;-84
2023/05/24 06:20:06;;;;;;;;;;;;;;;19.97;69.29;99369.31;4436692;32;33947;-85
2023/05/24 06:22:36;;;;;;;;;;;;;;;19.94;68.65;99380.03;4445722;32;33006;-84
2023/05/24 06:25:05;;;;;;;;;;;;;;;20.02;67.84;99379.56;4440526;32;34081;-84
2023/05/24 06:27:33;;;;;;;;;;;;;;;20.27;66.64;99386.06;4435586;32;34462;-85
2023/05/24 06:30:02;;;;;;;;;;;;;;;20.18;67.54;99384.81;4432119;32;34748;-84
2023/05/24 06:32:32;;;;;;;;;;;;;;;20.55;65.76;99382.66;4441106;32;32894;-84
2023/05/24 06:35:01;;;;;;;;;;;;;;;20.64;65.61;99390.06;4432224;32;33721;-84
2023/05/24 06:37:29;;;;;;;;;;;;;;;20.43;65.68;99382.44;4437993;32;33716;-84
2023/05/24 06:39:58;;;;;;;;;;;;;;;20.36;65.84;99393.44;4437120;32;34750;-85
2023/05/24 06:42:26;;;;;;;;;;;;;;;20.16;66.76;99391.97;4441699;32;32614;-84
2023/05/24 06:44:55;;;;;;;;;;;;;;;19.86;67.27;99392.78;4439224;32;34262;-83
2023/05/24 06:47:26;;;;;;;;;;;;;;;20.03;67.41;99397.09;4438565;32;33963;-84
2023/05/24 06:49:55;;;;;;;;;;;;;;;20.04;67.88;99396.97;4431468;32;35265;-84
2023/05/24 06:52:24;;;;;;;;;;;;;;;20.63;66.36;99406.81;4432087;32;34551;-83
2023/05/24 06:54:53;;;;;;;;;;;;;;;20.44;66.07;99396.47;4441033;32;34649;-84
2023/05/24 06:57:21;;;;;;;;;;;;;;;20.54;65.80;99404.66;4438335;32;34225;-84
2023/05/24 06:59:50;;;;;;;;;;;;;;;20.69;65.00;99408.25;4435987;32;34434;-84
2023/05/24 07:02:22;;;;;;;;;;;;;;;20.64;65.20;99413.78;4431858;32;33150;-85
2023/05/24 07:04:51;;;;;;;;;;;;;;;20.42;66.29;99415.00;4442914;32;33954;-83
2023/05/24 07:07:21;;;;;;;;;;;;;;;20.36;65.82;99423.25;4431664;32;33945;-84
2023/05/24 07:09:49;;;;;;;;;;;;;;;20.31;65.53;99430.56;4431745;32;33103;-83
2023/05/24 07:12:18;;;;;;;;;;;;;;;20.67;64.77;99426.78;4431729;32;33164;-85
2023/05/24 07:14:47;;;;;;;;;;;;;;;20.78;64.44;99419.09;4437532;32;34473;-85
2023/05/24 07:17:15;;;;;;;;;;;;;;;21.03;63.68;99428.16;4431981;32;34903;-84
2023/05/24 07:19:44;;;;;;;;;;;;;;;20.73;63.71;99436.09;4430981;32;34060;-84
2023/05/24 07:22:13;;;;;;;;;;;;;;;20.83;63.51;99422.28;4431575;32;32836;-84
2023/05/24 07:24:42;;;;;;;;;;;;;;;20.87;63.05;99426.41;4431426;32;33646;-83
2023/05/24 07:27:11;;;;;;;;;;;;;;;21.05;63.10;99428.91;4436822;32;34224;-85
2023/05/24 07:29:40;;;;;;;;;;;;;;;20.93;63.22;99435.78;4431103;32;34891;-83
2023/05/24 07:32:08;;;;;;;;;;;;;;;20.93;62.10;99440.22;4429636;32;33331;-84
2023/05/24 07:34:38;;;;;;;;;;;;;;;20.74;63.10;99449.19;4429855;32;33591;-84
2023/05/24 07:37:06;;;;;;;;;;;;;;;20.38;63.94;99445.09;4435483;32;33221;-84
2023/05/24 07:39:35;;;;;;;;;;;;;;;20.69;63.13;99442.50;4430362;32;34088;-85
2023/05/24 07:42:06;;;;;;;;;;;;;;;20.69;62.62;99440.72;4430306;32;32910;-84
2023/05/24 07:44:34;;;;;;;;;;;;;;;20.75;62.59;99445.63;4430728;32;33088;-83
2023/05/24 07:47:04;;;;;;;;;;;;;;;21.00;61.50;99447.66;4432288;32;35244;-85
2023/05/24 07:49:32;;;;;;;;;;;;;;;20.93;62.67;99433.12;4436868;32;33944;-84
2023/05/24 07:52:02;;;;;;;;;;;;;;;21.19;61.08;99444.75;4431463;32;33355;-84
2023/05/24 07:54:31;;;;;;;;;;;;;;;21.22;62.10;99449.84;4431139;32;34248;-84
2023/05/24 07:57:00;;;;;;;;;;;;;;;21.50;61.33;99443.75;4430330;32;35074;-84
2023/05/24 07:59:30;;;;;;;;;;;;;;;21.56;59.78;99446.94;4436766;32;33355;-84
2023/05/24 08:02:04;;;;;;;;;;;;;;;21.14;60.73;99435.41;4431379;32;32250;-84
2023/05/24 08:04:32;;;;;;;;;;;;;;;21.40;61.22;99445.25;4431368;32;34596;-84
2023/05/24 08:07:02;;;;;;;;;;;;;;;21.21;60.33;99448.12;4430741;32;34313;-84
2023/05/24 08:09:34;;;;;;;;;;;;;;;21.29;60.82;99451.16;4436661;32;34515;-84
2023/05/24 08:12:03;;;;;;;;;;;;;;;21.23;61.08;99446.25;4436808;32;32910;-84
2023/05/24 08:14:33;;;;;;;;;;;;;;;21.59;60.85;99446.75;4430975;32;33733;-84
2023/05/24 08:17:04;;;;;;;;;;;;;;;21.68;59.86;99447.00;4430900;32;34161;-84
2023/05/24 08:19:34;;;;;;;;;;;;;;;21.64;59.74;99452.59;4432523;32;33810;-84
2023/05/24 08:22:04;;;;;;;;;;;;;;;21.36;60.09;99451.63;4441562;32;32423;-84
2023/05/24 08:24:33;;;;;;;;;;;;;;;21.77;60.34;99450.00;4431820;32;34412;-85
2023/05/24 08:27:03;;;;;;;;;;;;;;;22.01;58.14;99455.53;4432961;32;34200;-84
2023/05/24 08:29:32;;;;;;;;;;;;;;;21.92;58.83;99455.19;4435727;32;34254;-84
2023/05/24 08:32:01;;;;;;;;;;;;;;;21.73;58.54;99459.94;4439728;32;34302;-85
2023/05/24 08:34:31;;;;;;;;;;;;;;;21.99;58.11;99458.28;4444687;32;34136;-84
2023/05/24 08:36:59;;;;;;;;;;;;;;;21.80;57.98;99468.31;4436730;32;35119;-84
2023/05/24 08:39:28;;;;;;;;;;;;;;;21.84;57.75;99465.38;4432572;32;33932;-83
2023/05/24 08:41:56;;;;;;;;;;;;;;;21.85;57.69;99461.78;4438669;32;33695;-85
2023/05/24 08:44:40;;;;;;;;;;;;;;;22.02;58.68;99473.94;4440827;32;34113;-84
2023/05/24 08:47:09;;;;;;;;;;;;;;;22.12;58.02;99471.53;4434801;32;33592;-84
2023/05/24 08:49:38;;;;;;;;;;;;;;;22.20;57.97;99471.03;4438162;32;32175;-83
2023/05/24 08:52:07;;;;;;;;;;;;;;;22.43;55.53;99459.00;4424571;32;32907;-85
2023/05/24 08:54:36;;;;;;;;;;;;;;;22.37;56.44;99469.03;4439007;32;34279;-85
2023/05/24 08:57:04;;;;;;;;;;;;;;;22.26;56.40;99474.16;4440836;32;34888;-83
2023/05/24 08:59:33;;;;;;;;;;;;;;;22.22;56.65;99467.37;4437728;32;34181;-84
2023/05/24 09:02:03;;;;;;;;;;;;;;;22.35;56.40;99475.37;4424765;32;33313;-83
2023/05/24 09:04:31;;;;;;;;;;;;;;;21.94;57.89;99471.78;4446352;32;33232;-84
2023/05/24 09:07:00;;;;;;;;;;;;;;;21.81;57.63;99476.13;4449225;32;34938;-84
2023/05/24 09:09:28;;;;;;;;;;;;;;;22.01;57.64;99485.44;4434423;32;34557;-84
2023/05/24 09:12:00;;;;;;;;;;;;;;;21.71;57.83;99482.94;4434392;32;33127;-84
2023/05/24 09:14:29;;;;;;;;;;;;;;;21.66;59.00;99477.94;4430431;32;33649;-85
2023/05/24 09:16:57;;;;;;;;;;;;;;;22.11;57.65;99480.44;4440551;32;33748;-83
2023/05/24 09:19:27;;;;;;;;;;;;;;;22.24;56.78;99493.72;4434519;32;33928;-84
2023/05/24 09:21:56;;;;;;;;;;;;;;;22.36;57.14;99488.47;4433594;32;34512;-85
2023/05/24 09:24:24;;;;;;;;;;;;;;;22.40;56.30;99494.41;4430572;32;34460;-84
2023/05/24 09:26:53;;;;;;;;;;;;;;;22.36;56.48;99485.00;4430514;32;34109;-84
2023/05/24 09:29:22;;;;;;;;;;;;;;;22.10;57.29;99479.56;4435741;32;35141;-84
2023/05/24 09:31:52;;;;;;;;;;;;;;;22.42;55.39;99483.72;4430437;32;33923;-85
2023/05/24 09:34:20;;;;;;;;;;;;;;;22.50;55.52;99490.22;4430457;32;34253;-83
2023/05/24 09:36:52;;;;;;;;;;;;;;;22.25;56.16;99490.13;4430349;32;33749;-83
2023/05/24 09:39:21;;;;;;;;;;;;;;;22.29;55.47;99489.81;4436365;32;34808;-83
2023/05/24 09:41:54;;;;;;;;;;;;;;;22.57;54.73;99482.75;4430610;32;32946;-84
2023/05/24 09:44:24;;;;;;;;;;;;;;;22.65;55.21;99491.00;4430369;32;33458;-84
2023/05/24 09:46:52;;;;;;;;;;;;;;;22.94;54.42;99494.34;4430337;32;34239;-84
2023/05/24 09:49:21;;;;;;;;;;;;;;;23.12;53.11;99491.41;4431731;32;33801;-84
2023/05/24 09:51:54;;;;;;;;;;;;;;;22.92;53.97;99488.28;4435576;32;33054;-83
2023/05/24 09:54:24;;;;;;;;;;;;;;;23.19;53.45;99496.19;4430427;32;33099;-84
2023/05/24 09:56:53;;;;;;;;;;;;;;;22.91;53.50;99489.25;4430236;32;34253;-84
2023/05/24 09:59:21;;;;;;;;;;;;;;;23.12;53.34;99497.59;4430316;32;33887;-84
2023/05/24 10:01:52;;;;;;;;;;;;;;;22.77;54.32;99490.19;4436317;32;33380;-84
2023/05/24 10:04:22;;;;;;;;;;;;;;;22.76;53.63;99499.06;4432317;32;33819;-86
2023/05/24 10:06:52;;;;;;;;;;;;;;;22.68;53.27;99504.00;4434095;32;33670;-84
2023/05/24 10:09:20;;;;;;;;;;;;;;;22.86;53.04;99494.03;4432358;32;34200;-84
2023/05/24 10:11:49;;;;;;;;;;;;;;;23.06;54.23;99494.50;4445577;32;34035;-84
2023/05/24 10:14:18;;;;;;;;;;;;;;;23.23;52.73;99496.00;4440170;32;33557;-85
2023/05/24 10:16:47;;;;;;;;;;;;;;;23.32;52.41;99490.91;4429998;32;34283;-84
2023/05/24 10:19:15;;;;;;;;;;;;;;;23.23;52.73;99498.63;4430017;32;34936;-84
2023/05/24 10:21:46;;;;;;;;;;;;;;;23.54;53.00;99500.84;4429300;32;33258;-84
2023/05/24 10:24:16;;;;;;;;;;;;;;;23.66;52.58;99495.66;4436361;32;33553;-85
2023/05/24 10:26:47;;;;;;;;;;;;;;;23.88;51.28;99493.19;4429856;32;33328;-84
2023/05/24 10:29:17;;;;;;;;;;;;;;;23.57;49.95;99490.03;4429066;32;33523;-83
2023/05/24 10:31:46;;;;;;;;;;;;;;;23.78;50.66;99498.31;4429948;32;33079;-83
2023/05/24 10:34:14;;;;;;;;;;;;;;;23.89;50.06;99488.75;4428324;32;34681;-85
2023/05/24 10:36:45;;;;;;;;;;;;;;;24.13;50.18;99488.78;4431842;32;33916;-84
2023/05/24 10:39:15;;;;;;;;;;;;;;;24.40;49.01;99494.69;4427072;32;35823;-84
2023/05/24 10:41:44;;;;;;;;;;;;;;;24.36;50.05;99492.41;4429224;32;32844;-84
2023/05/24 10:44:12;;;;;;;;;;;;;;;24.37;49.81;99486.97;4426950;32;34291;-83
2023/05/24 10:47:00;;;;;;;;;;;;;;;24.34;48.46;99484.56;4430969;32;33729;-84
2023/05/24 10:49:29;;;;;;;;;;;;;;;24.28;48.49;99477.03;4426038;32;34038;-84
2023/05/24 10:52:01;;;;;;;;;;;;;;;24.22;47.75;99473.03;4426415;32;34200;-84
2023/05/24 10:54:30;;;;;;;;;;;;;;;24.28;48.45;99475.25;4426313;32;33530;-84
2023/05/24 10:57:02;;;;;;;;;;;;;;;24.50;48.66;99479.00;4426707;32;34947;-84
2023/05/24 10:59:33;;;;;;;;;;;;;;;24.53;48.42;99484.09;4434301;32;34865;-84
2023/05/24 11:02:02;;;;;;;;;;;;;;;24.47;47.39;99466.78;4427464;32;32955;-85
2023/05/24 11:04:32;;;;;;;;;;;;;;;24.91;47.61;99473.25;4426544;32;33655;-84
2023/05/24 11:07:02;;;;;;;;;;;;;;;24.80;48.46;99480.31;4427494;32;35088;-84
2023/05/24 11:09:32;;;;;;;;;;;;;;;24.64;47.59;99481.44;4431799;32;34597;-84
2023/05/24 11:12:02;;;;;;;;;;;;;;;24.64;48.14;99481.44;4427934;32;34645;-84
2023/05/24 11:14:32;;;;;;;;;;;;;;;24.53;48.50;99473.47;4428091;32;33984;-85
2023/05/24 11:17:00;;;;;;;;;;;;;;;24.66;47.20;99473.38;4425995;32;34468;-83
2023/05/24 11:19:30;;;;;;;;;;;;;;;24.33;46.96;99474.06;4428164;32;34851;-83
2023/05/24 11:22:00;;;;;;;;;;;;;;;24.52;47.78;99468.28;4434557;32;35384;-84
2023/05/24 11:24:29;;;;;;;;;;;;;;;24.81;45.81;99474.03;4429484;32;33489;-83
2023/05/24 11:26:59;;;;;;;;;;;;;;;24.81;44.95;99466.91;4428440;32;33935;-85
2023/05/24 11:29:27;;;;;;;;;;;;;;;24.99;45.56;99467.34;4429696;32;34204;-83
2023/05/24 11:31:57;;;;;;;;;;;;;;;25.00;44.60;99469.03;4433536;32;33745;-83
2023/05/24 11:34:26;;;;;;;;;;;;;;;25.38;44.60;99465.25;4431605;32;33694;-83
2023/05/24 11:36:55;;;;;;;;;;;;;;;25.17;43.62;99458.91;4432577;32;35044;-84
2023/05/24 11:39:24;;;;;;;;;;;;;;;24.75;44.32;99456.78;4430815;32;33709;-83
2023/05/24 11:41:53;;;;;;;;;;;;;;;25.04;44.99;99462.53;4431725;32;33688;-82
2023/05/24 11:44:24;;;;;;;;;;;;;;;25.40;42.86;99462.47;4437980;32;33872;-83
2023/05/24 11:46:57;;;;;;;;;;;;;;;25.70;42.36;99470.66;4430971;32;34922;-83
2023/05/24 11:49:25;;;;;;;;;;;;;;;25.64;42.31;99452.56;4430707;32;33985;-83
2023/05/24 11:51:55;;;;;;;;;;;;;;;25.70;42.80;99453.88;4431810;32;32535;-83
2023/05/24 11:54:23;;;;;;;;;;;;;;;25.25;42.85;99457.41;4437103;32;34021;-83
2023/05/24 11:56:52;;;;;;;;;;;;;;;25.37;42.28;99460.03;4429794;32;33505;-83
2023/05/24 11:59:24;;;;;;;;;;;;;;;25.85;42.41;99447.31;4431275;32;33880;-84
2023/05/24 12:01:57;;;;;;;;;;;;;;;25.51;42.33;99460.63;4433524;32;33962;-84
2023/05/24 12:04:26;;;;;;;;;;;;;;;25.63;43.54;99444.72;4428416;32;32550;-84
2023/05/24 12:06:55;;;;;;;;;;;;;;;25.78;42.42;99448.78;4434337;32;34197;-83
2023/05/24 12:09:23;;;;;;;;;;;;;;;25.63;43.43;99455.34;4428765;32;34273;-83
2023/05/24 12:11:52;;;;;;;;;;;;;;;25.59;42.18;99456.53;4428990;32;33049;-83
2023/05/24 12:14:24;;;;;;;;;;;;;;;25.59;42.18;99456.53;4427687;32;32245;-84
2023/05/24 12:16:54;;;;;;;;;;;;;;;25.44;41.45;99455.94;4437304;32;34392;-84
2023/05/24 12:19:24;;;;;;;;;;;;;;;25.64;41.42;99449.91;4431468;32;33908;-83
2023/05/24 12:22:01;;;;;;;;;;;;;;;25.91;41.98;99446.03;4428522;32;32884;-82
2023/05/24 12:24:31;;;;;;;;;;;;;;;26.21;39.97;99441.84;4429735;32;32973;-83
2023/05/24 12:27:01;;;;;;;;;;;;;;;26.29;40.90;99455.34;4431129;32;34318;-84
2023/05/24 12:29:35;;;;;;;;;;;;;;;26.11;39.14;99468.34;4433995;32;33085;-81
2023/05/24 12:32:04;;;;;;;;;;;;;;;25.73;39.91;99448.31;4432011;32;33742;-83
2023/05/24 12:34:33;;;;;;;;;;;;;;;26.09;39.63;99449.84;4430031;32;33464;-84
2023/05/24 12:37:02;;;;;;;;;;;;;;;25.95;41.15;99440.34;4429203;32;33038;-82
2023/05/24 12:39:32;;;;;;;;;;;;;;;26.45;39.10;99444.28;4434083;32;34488;-84
2023/05/24 12:42:02;;;;;;;;;;;;;;;26.87;38.19;99439.88;4432582;32;33721;-83
2023/05/24 12:44:31;;;;;;;;;;;;;;;26.99;38.39;99440.62;4429336;32;33913;-82
2023/05/24 12:47:02;;;;;;;;;;;;;;;26.57;37.65;99436.16;4431231;32;32905;-84
2023/05/24 12:49:31;;;;;;;;;;;;;;;26.68;39.09;99431.75;4428434;32;33891;-82
2023/05/24 12:52:00;;;;;;;;;;;;;;;26.69;38.36;99431.63;4433903;32;33408;-83
2023/05/24 12:54:29;;;;;;;;;;;;;;;26.80;38.30;99430.72;4428447;32;33811;-83
2023/05/24 12:57:01;;;;;;;;;;;;;;;26.69;39.16;99426.28;4428429;32;33822;-82
2023/05/24 12:59:30;;;;;;;;;;;;;;;26.95;39.22;99429.41;4428479;32;34524;-82